sensor_id;sensor_type;location;lat;lon;timestamp;P1;durP1;ratioP1;P2;durP2;ratioP2
69621;SDS011;56841;55.964;37.674;2023-02-11T00:02:02;11.13;;;3.97;;
69621;SDS011;56841;55.964;37.674;2023-02-11T00:04:30;15.35;;;5.90;;
69621;SDS011;56841;55.964;37.674;2023-02-11T00:06:56;10.50;;;3.88;;
69621;SDS011;56841;55.964;37.674;2023-02-11T00:11:48;13.43;;;4.65;;
69621;SDS011;56841;55.964;37.674;2023-02-11T00:14:13;12.98;;;3.28;;
69621;SDS011;56841;55.964;37.674;2023-02-11T00:19:05;9.63;;;3.58;;
69621;SDS011;56841;55.964;37.674;2023-02-11T00:23:57;13.88;;;5.35;;
69621;SDS011;56841;55.964;37.674;2023-02-11T00:26:26;13.75;;;4.70;;
69621;SDS011;56841;55.964;37.674;2023-02-11T00:28:53;15.07;;;4.43;;
69621;SDS011;56841;55.964;37.674;2023-02-11T00:33:46;10.95;;;4.13;;
69621;SDS011;56841;55.964;37.674;2023-02-11T00:38:41;11.73;;;4.93;;
69621;SDS011;56841;55.964;37.674;2023-02-11T00:41:11;10.23;;;4.57;;
69621;SDS011;56841;55.964;37.674;2023-02-11T00:43:38;11.93;;;4.75;;
69621;SDS011;56841;55.964;37.674;2023-02-11T00:46:04;15.18;;;4.85;;
69621;SDS011;56841;55.964;37.674;2023-02-11T00:48:31;9.32;;;3.53;;
69621;SDS011;56841;55.964;37.674;2023-02-11T00:50:59;10.55;;;4.18;;
69621;SDS011;56841;55.964;37.674;2023-02-11T00:53:25;11.95;;;3.83;;
69621;SDS011;56841;55.964;37.674;2023-02-11T00:55:51;16.05;;;4.65;;
69621;SDS011;56841;55.964;37.674;2023-02-11T01:00:43;8.07;;;2.85;;
69621;SDS011;56841;55.964;37.674;2023-02-11T01:05:34;14.45;;;5.10;;
69621;SDS011;56841;55.964;37.674;2023-02-11T01:08:01;9.48;;;4.00;;
69621;SDS011;56841;55.964;37.674;2023-02-11T01:10:27;12.45;;;4.20;;
69621;SDS011;56841;55.964;37.674;2023-02-11T01:12:53;14.13;;;4.50;;
69621;SDS011;56841;55.964;37.674;2023-02-11T01:15:19;9.13;;;3.22;;
69621;SDS011;56841;55.964;37.674;2023-02-11T01:17:46;11.80;;;4.90;;
69621;SDS011;56841;55.964;37.674;2023-02-11T01:22:40;13.30;;;4.25;;
69621;SDS011;56841;55.964;37.674;2023-02-11T01:25:07;6.22;;;2.67;;
69621;SDS011;56841;55.964;37.674;2023-02-11T01:27:34;7.40;;;3.25;;
69621;SDS011;56841;55.964;37.674;2023-02-11T01:30:01;11.02;;;3.97;;
69621;SDS011;56841;55.964;37.674;2023-02-11T01:32:29;13.00;;;4.03;;
69621;SDS011;56841;55.964;37.674;2023-02-11T01:34:55;7.70;;;2.63;;
69621;SDS011;56841;55.964;37.674;2023-02-11T01:37:21;8.90;;;3.03;;
69621;SDS011;56841;55.964;37.674;2023-02-11T01:42:16;10.40;;;4.13;;
69621;SDS011;56841;55.964;37.674;2023-02-11T01:44:50;10.60;;;3.25;;
69621;SDS011;56841;55.964;37.674;2023-02-11T01:47:17;10.88;;;4.03;;
69621;SDS011;56841;55.964;37.674;2023-02-11T01:49:48;10.73;;;3.03;;
69621;SDS011;56841;55.964;37.674;2023-02-11T01:54:54;7.47;;;2.92;;
69621;SDS011;56841;55.964;37.674;2023-02-11T01:57:44;9.20;;;3.38;;
69621;SDS011;56841;55.964;37.674;2023-02-11T02:02:52;5.47;;;2.03;;
69621;SDS011;56841;55.964;37.674;2023-02-11T02:10:44;7.95;;;2.83;;
69621;SDS011;56841;55.964;37.674;2023-02-11T02:13:15;8.77;;;2.88;;
69621;SDS011;56841;55.964;37.674;2023-02-11T02:15:55;9.40;;;3.45;;
69621;SDS011;56841;55.964;37.674;2023-02-11T02:35:18;5.65;;;2.10;;
69621;SDS011;56841;55.964;37.674;2023-02-11T02:38:14;6.40;;;2.33;;
69621;SDS011;56841;55.964;37.674;2023-02-11T02:40:47;5.63;;;1.35;;
69621;SDS011;56841;55.964;37.674;2023-02-11T02:43:17;4.90;;;1.85;;
69621;SDS011;56841;55.964;37.674;2023-02-11T02:45:45;4.93;;;1.73;;
69621;SDS011;56841;55.964;37.674;2023-02-11T02:50:50;4.95;;;1.65;;
69621;SDS011;56841;55.964;37.674;2023-02-11T02:59:17;8.13;;;2.60;;
69621;SDS011;56841;55.964;37.674;2023-02-11T03:10:11;4.82;;;1.58;;
69621;SDS011;56841;55.964;37.674;2023-02-11T03:12:41;8.30;;;2.70;;
69621;SDS011;56841;55.964;37.674;2023-02-11T03:15:09;4.82;;;1.80;;
69621;SDS011;56841;55.964;37.674;2023-02-11T03:17:37;5.50;;;2.17;;
69621;SDS011;56841;55.964;37.674;2023-02-11T03:20:05;8.38;;;2.25;;
69621;SDS011;56841;55.964;37.674;2023-02-11T03:22:37;5.05;;;1.75;;
69621;SDS011;56841;55.964;37.674;2023-02-11T03:25:07;6.75;;;2.72;;
69621;SDS011;56841;55.964;37.674;2023-02-11T03:30:15;6.10;;;1.88;;
69621;SDS011;56841;55.964;37.674;2023-02-11T03:33:23;2.75;;;1.13;;
69621;SDS011;56841;55.964;37.674;2023-02-11T03:38:25;3.17;;;1.42;;
69621;SDS011;56841;55.964;37.674;2023-02-11T03:40:57;6.72;;;2.15;;
69621;SDS011;56841;55.964;37.674;2023-02-11T03:46:27;2.65;;;1.10;;
69621;SDS011;56841;55.964;37.674;2023-02-11T03:49:03;4.32;;;1.33;;
69621;SDS011;56841;55.964;37.674;2023-02-11T03:51:32;7.80;;;2.30;;
69621;SDS011;56841;55.964;37.674;2023-02-11T03:54:00;3.72;;;1.50;;
69621;SDS011;56841;55.964;37.674;2023-02-11T03:56:31;6.68;;;2.38;;
69621;SDS011;56841;55.964;37.674;2023-02-11T03:59:02;2.42;;;0.95;;
69621;SDS011;56841;55.964;37.674;2023-02-11T04:03:54;4.55;;;1.88;;
69621;SDS011;56841;55.964;37.674;2023-02-11T04:06:20;6.70;;;1.92;;
69621;SDS011;56841;55.964;37.674;2023-02-11T04:11:11;7.93;;;2.45;;
69621;SDS011;56841;55.964;37.674;2023-02-11T04:16:02;6.93;;;2.40;;
69621;SDS011;56841;55.964;37.674;2023-02-11T04:18:30;5.75;;;2.00;;
69621;SDS011;56841;55.964;37.674;2023-02-11T04:20:56;12.52;;;2.53;;
69621;SDS011;56841;55.964;37.674;2023-02-11T04:25:48;5.10;;;1.80;;
69621;SDS011;56841;55.964;37.674;2023-02-11T04:28:14;7.55;;;2.25;;
69621;SDS011;56841;55.964;37.674;2023-02-11T04:30:40;4.90;;;1.33;;
69621;SDS011;56841;55.964;37.674;2023-02-11T04:35:31;7.38;;;2.22;;
69621;SDS011;56841;55.964;37.674;2023-02-11T04:37:57;5.50;;;1.58;;
69621;SDS011;56841;55.964;37.674;2023-02-11T04:40:24;3.35;;;1.23;;
69621;SDS011;56841;55.964;37.674;2023-02-11T04:42:50;6.93;;;1.60;;
69621;SDS011;56841;55.964;37.674;2023-02-11T04:47:41;4.97;;;1.50;;
69621;SDS011;56841;55.964;37.674;2023-02-11T04:50:07;3.25;;;1.13;;
69621;SDS011;56841;55.964;37.674;2023-02-11T04:54:59;3.97;;;1.15;;
69621;SDS011;56841;55.964;37.674;2023-02-11T04:57:24;9.35;;;2.45;;
69621;SDS011;56841;55.964;37.674;2023-02-11T05:02:16;5.13;;;1.30;;
69621;SDS011;56841;55.964;37.674;2023-02-11T05:07:07;7.15;;;1.92;;
69621;SDS011;56841;55.964;37.674;2023-02-11T05:11:59;4.25;;;1.33;;
69621;SDS011;56841;55.964;37.674;2023-02-11T05:16:50;7.07;;;1.50;;
69621;SDS011;56841;55.964;37.674;2023-02-11T05:21:42;5.47;;;1.75;;
69621;SDS011;56841;55.964;37.674;2023-02-11T05:24:07;5.75;;;1.25;;
69621;SDS011;56841;55.964;37.674;2023-02-11T05:26:33;2.20;;;0.82;;
69621;SDS011;56841;55.964;37.674;2023-02-11T05:31:25;3.88;;;1.38;;
69621;SDS011;56841;55.964;37.674;2023-02-11T05:33:50;7.32;;;1.65;;
69621;SDS011;56841;55.964;37.674;2023-02-11T05:36:16;5.40;;;1.38;;
69621;SDS011;56841;55.964;37.674;2023-02-11T05:38:42;8.00;;;1.48;;
69621;SDS011;56841;55.964;37.674;2023-02-11T05:41:08;6.15;;;1.73;;
69621;SDS011;56841;55.964;37.674;2023-02-11T05:43:35;7.60;;;2.30;;
69621;SDS011;56841;55.964;37.674;2023-02-11T05:46:01;4.43;;;1.15;;
69621;SDS011;56841;55.964;37.674;2023-02-11T05:48:28;6.07;;;2.25;;
69621;SDS011;56841;55.964;37.674;2023-02-11T05:50:54;3.88;;;1.45;;
69621;SDS011;56841;55.964;37.674;2023-02-11T05:53:19;8.30;;;1.77;;
69621;SDS011;56841;55.964;37.674;2023-02-11T05:58:10;4.28;;;1.17;;
69621;SDS011;56841;55.964;37.674;2023-02-11T06:03:02;7.47;;;1.77;;
69621;SDS011;56841;55.964;37.674;2023-02-11T06:05:29;2.58;;;0.90;;
69621;SDS011;56841;55.964;37.674;2023-02-11T06:10:20;3.05;;;1.25;;
69621;SDS011;56841;55.964;37.674;2023-02-11T06:15:12;4.30;;;1.50;;
69621;SDS011;56841;55.964;37.674;2023-02-11T06:20:04;9.23;;;2.13;;
69621;SDS011;56841;55.964;37.674;2023-02-11T06:22:32;4.28;;;2.05;;
69621;SDS011;56841;55.964;37.674;2023-02-11T06:24:57;6.70;;;2.55;;
69621;SDS011;56841;55.964;37.674;2023-02-11T06:27:23;6.00;;;2.70;;
69621;SDS011;56841;55.964;37.674;2023-02-11T06:29:49;8.48;;;2.83;;
69621;SDS011;56841;55.964;37.674;2023-02-11T06:32:17;7.05;;;2.53;;
69621;SDS011;56841;55.964;37.674;2023-02-11T06:34:43;13.20;;;3.97;;
69621;SDS011;56841;55.964;37.674;2023-02-11T06:37:09;6.63;;;2.13;;
69621;SDS011;56841;55.964;37.674;2023-02-11T06:39:35;23.50;;;5.63;;
69621;SDS011;56841;55.964;37.674;2023-02-11T06:42:01;8.18;;;3.13;;
69621;SDS011;56841;55.964;37.674;2023-02-11T06:46:53;9.32;;;3.30;;
69621;SDS011;56841;55.964;37.674;2023-02-11T06:49:19;7.70;;;2.65;;
69621;SDS011;56841;55.964;37.674;2023-02-11T06:54:11;8.02;;;2.63;;
69621;SDS011;56841;55.964;37.674;2023-02-11T06:56:39;3.80;;;1.80;;
69621;SDS011;56841;55.964;37.674;2023-02-11T07:01:31;5.97;;;2.22;;
69621;SDS011;56841;55.964;37.674;2023-02-11T07:06:24;5.25;;;1.50;;
69621;SDS011;56841;55.964;37.674;2023-02-11T07:08:52;3.60;;;1.42;;
69621;SDS011;56841;55.964;37.674;2023-02-11T07:11:20;4.80;;;1.33;;
69621;SDS011;56841;55.964;37.674;2023-02-11T07:13:51;7.22;;;2.22;;
69621;SDS011;56841;55.964;37.674;2023-02-11T07:16:19;4.55;;;1.67;;
69621;SDS011;56841;55.964;37.674;2023-02-11T07:18:45;8.65;;;1.98;;
69621;SDS011;56841;55.964;37.674;2023-02-11T07:21:13;6.55;;;2.35;;
69621;SDS011;56841;55.964;37.674;2023-02-11T07:23:41;7.55;;;2.58;;
69621;SDS011;56841;55.964;37.674;2023-02-11T07:26:08;8.27;;;2.58;;
69621;SDS011;56841;55.964;37.674;2023-02-11T07:28:37;7.22;;;2.30;;
69621;SDS011;56841;55.964;37.674;2023-02-11T07:31:07;8.00;;;2.20;;
69621;SDS011;56841;55.964;37.674;2023-02-11T07:33:35;5.93;;;2.22;;
69621;SDS011;56841;55.964;37.674;2023-02-11T07:36:01;8.50;;;2.58;;
69621;SDS011;56841;55.964;37.674;2023-02-11T07:38:28;3.72;;;0.93;;
69621;SDS011;56841;55.964;37.674;2023-02-11T07:40:58;6.07;;;2.08;;
69621;SDS011;56841;55.964;37.674;2023-02-11T07:43:28;5.50;;;1.92;;
69621;SDS011;56841;55.964;37.674;2023-02-11T07:45:55;7.05;;;2.53;;
69621;SDS011;56841;55.964;37.674;2023-02-11T07:48:21;7.35;;;2.58;;
69621;SDS011;56841;55.964;37.674;2023-02-11T07:53:12;4.53;;;1.67;;
69621;SDS011;56841;55.964;37.674;2023-02-11T07:58:04;7.65;;;2.33;;
69621;SDS011;56841;55.964;37.674;2023-02-11T08:02:55;9.27;;;2.33;;
69621;SDS011;56841;55.964;37.674;2023-02-11T08:05:22;3.97;;;1.48;;
69621;SDS011;56841;55.964;37.674;2023-02-11T08:10:17;6.13;;;2.13;;
69621;SDS011;56841;55.964;37.674;2023-02-11T08:12:43;6.85;;;1.80;;
69621;SDS011;56841;55.964;37.674;2023-02-11T08:17:35;10.30;;;3.70;;
69621;SDS011;56841;55.964;37.674;2023-02-11T08:20:02;6.70;;;1.90;;
69621;SDS011;56841;55.964;37.674;2023-02-11T08:22:32;10.05;;;3.55;;
69621;SDS011;56841;55.964;37.674;2023-02-11T08:25:00;9.90;;;3.25;;
69621;SDS011;56841;55.964;37.674;2023-02-11T08:27:26;8.88;;;3.17;;
69621;SDS011;56841;55.964;37.674;2023-02-11T08:32:18;11.45;;;4.72;;
69621;SDS011;56841;55.964;37.674;2023-02-11T08:34:44;8.80;;;3.00;;
69621;SDS011;56841;55.964;37.674;2023-02-11T08:39:36;10.25;;;4.18;;
69621;SDS011;56841;55.964;37.674;2023-02-11T08:42:02;10.45;;;4.15;;
69621;SDS011;56841;55.964;37.674;2023-02-11T08:44:28;7.57;;;3.08;;
69621;SDS011;56841;55.964;37.674;2023-02-11T08:46:54;10.00;;;3.20;;
69621;SDS011;56841;55.964;37.674;2023-02-11T08:51:46;10.82;;;3.17;;
69621;SDS011;56841;55.964;37.674;2023-02-11T08:54:13;8.80;;;3.13;;
69621;SDS011;56841;55.964;37.674;2023-02-11T08:56:40;8.25;;;3.22;;
69621;SDS011;56841;55.964;37.674;2023-02-11T09:01:33;11.55;;;4.75;;
69621;SDS011;56841;55.964;37.674;2023-02-11T09:06:25;10.25;;;4.18;;
69621;SDS011;56841;55.964;37.674;2023-02-11T09:08:53;11.52;;;4.18;;
69621;SDS011;56841;55.964;37.674;2023-02-11T09:11:24;11.23;;;4.40;;
69621;SDS011;56841;55.964;37.674;2023-02-11T09:13:52;10.93;;;4.30;;
69621;SDS011;56841;55.964;37.674;2023-02-11T09:18:45;11.65;;;4.18;;
69621;SDS011;56841;55.964;37.674;2023-02-11T09:21:11;8.93;;;3.45;;
69621;SDS011;56841;55.964;37.674;2023-02-11T09:23:38;14.00;;;4.40;;
69621;SDS011;56841;55.964;37.674;2023-02-11T09:28:33;12.98;;;4.35;;
69621;SDS011;56841;55.964;37.674;2023-02-11T09:33:29;11.40;;;4.32;;
69621;SDS011;56841;55.964;37.674;2023-02-11T09:38:20;8.75;;;3.10;;
69621;SDS011;56841;55.964;37.674;2023-02-11T09:40:46;12.38;;;3.90;;
69621;SDS011;56841;55.964;37.674;2023-02-11T09:43:16;8.23;;;3.40;;
69621;SDS011;56841;55.964;37.674;2023-02-11T09:45:47;6.30;;;2.53;;
69621;SDS011;56841;55.964;37.674;2023-02-11T09:48:19;12.65;;;4.90;;
69621;SDS011;56841;55.964;37.674;2023-02-11T09:50:56;11.10;;;4.65;;
69621;SDS011;56841;55.964;37.674;2023-02-11T09:53:28;11.35;;;4.70;;
69621;SDS011;56841;55.964;37.674;2023-02-11T09:56:00;6.93;;;3.33;;
69621;SDS011;56841;55.964;37.674;2023-02-11T09:58:35;11.10;;;4.25;;
69621;SDS011;56841;55.964;37.674;2023-02-11T10:06:37;7.90;;;2.53;;
69621;SDS011;56841;55.964;37.674;2023-02-11T10:12:17;6.15;;;2.67;;
69621;SDS011;56841;55.964;37.674;2023-02-11T10:20:17;9.82;;;4.07;;
69621;SDS011;56841;55.964;37.674;2023-02-11T10:25:32;11.85;;;4.50;;
69621;SDS011;56841;55.964;37.674;2023-02-11T10:28:09;10.18;;;4.00;;
69621;SDS011;56841;55.964;37.674;2023-02-11T10:30:41;11.10;;;5.05;;
69621;SDS011;56841;55.964;37.674;2023-02-11T10:36:02;7.72;;;2.92;;
69621;SDS011;56841;55.964;37.674;2023-02-11T10:38:29;12.00;;;4.70;;
69621;SDS011;56841;55.964;37.674;2023-02-11T10:40:55;13.73;;;4.65;;
69621;SDS011;56841;55.964;37.674;2023-02-11T10:43:23;7.10;;;2.95;;
69621;SDS011;56841;55.964;37.674;2023-02-11T10:45:52;6.97;;;2.65;;
69621;SDS011;56841;55.964;37.674;2023-02-11T10:48:40;6.47;;;3.08;;
69621;SDS011;56841;55.964;37.674;2023-02-11T10:51:11;14.15;;;4.60;;
69621;SDS011;56841;55.964;37.674;2023-02-11T10:53:40;9.82;;;3.85;;
69621;SDS011;56841;55.964;37.674;2023-02-11T10:56:07;11.15;;;4.55;;
69621;SDS011;56841;55.964;37.674;2023-02-11T10:58:40;11.45;;;5.15;;
69621;SDS011;56841;55.964;37.674;2023-02-11T11:01:10;13.07;;;3.90;;
69621;SDS011;56841;55.964;37.674;2023-02-11T11:03:47;8.43;;;3.88;;
69621;SDS011;56841;55.964;37.674;2023-02-11T11:08:52;10.80;;;3.60;;
69621;SDS011;56841;55.964;37.674;2023-02-11T11:11:18;9.20;;;2.95;;
69621;SDS011;56841;55.964;37.674;2023-02-11T11:16:20;10.18;;;3.85;;
69621;SDS011;56841;55.964;37.674;2023-02-11T11:18:49;10.55;;;3.55;;
69621;SDS011;56841;55.964;37.674;2023-02-11T11:21:19;11.20;;;4.28;;
69621;SDS011;56841;55.964;37.674;2023-02-11T11:23:51;8.95;;;3.05;;
69621;SDS011;56841;55.964;37.674;2023-02-11T11:26:48;9.00;;;3.22;;
69621;SDS011;56841;55.964;37.674;2023-02-11T11:31:57;11.82;;;4.50;;
69621;SDS011;56841;55.964;37.674;2023-02-11T11:34:29;9.68;;;3.20;;
69621;SDS011;56841;55.964;37.674;2023-02-11T11:36:58;14.50;;;4.70;;
69621;SDS011;56841;55.964;37.674;2023-02-11T11:39:27;13.85;;;4.70;;
69621;SDS011;56841;55.964;37.674;2023-02-11T11:41:57;10.18;;;4.40;;
69621;SDS011;56841;55.964;37.674;2023-02-11T11:44:29;11.90;;;4.32;;
69621;SDS011;56841;55.964;37.674;2023-02-11T11:47:30;12.40;;;3.70;;
69621;SDS011;56841;55.964;37.674;2023-02-11T11:55:40;7.22;;;3.13;;
69621;SDS011;56841;55.964;37.674;2023-02-11T11:58:17;11.68;;;3.88;;
69621;SDS011;56841;55.964;37.674;2023-02-11T12:14:43;10.38;;;4.63;;
69621;SDS011;56841;55.964;37.674;2023-02-11T12:26:00;11.80;;;4.80;;
69621;SDS011;56841;55.964;37.674;2023-02-11T12:28:36;9.98;;;4.13;;
69621;SDS011;56841;55.964;37.674;2023-02-11T12:39:52;15.82;;;5.70;;
69621;SDS011;56841;55.964;37.674;2023-02-11T12:48:38;11.32;;;4.45;;
69621;SDS011;56841;55.964;37.674;2023-02-11T12:59:07;10.45;;;2.83;;
69621;SDS011;56841;55.964;37.674;2023-02-11T13:01:41;11.00;;;4.15;;
69621;SDS011;56841;55.964;37.674;2023-02-11T13:06:48;12.27;;;4.00;;
69621;SDS011;56841;55.964;37.674;2023-02-11T13:09:27;10.90;;;4.68;;
69621;SDS011;56841;55.964;37.674;2023-02-11T13:11:59;11.35;;;4.38;;
69621;SDS011;56841;55.964;37.674;2023-02-11T13:14:47;16.75;;;6.45;;
69621;SDS011;56841;55.964;37.674;2023-02-11T13:17:17;20.00;;;6.63;;
69621;SDS011;56841;55.964;37.674;2023-02-11T13:19:59;13.80;;;4.57;;
69621;SDS011;56841;55.964;37.674;2023-02-11T13:22:39;9.68;;;4.70;;
69621;SDS011;56841;55.964;37.674;2023-02-11T13:28:15;12.52;;;3.78;;
69621;SDS011;56841;55.964;37.674;2023-02-11T13:31:11;18.92;;;7.60;;
69621;SDS011;56841;55.964;37.674;2023-02-11T13:33:41;14.50;;;5.85;;
69621;SDS011;56841;55.964;37.674;2023-02-11T13:38:36;17.10;;;5.50;;
69621;SDS011;56841;55.964;37.674;2023-02-11T13:43:40;13.00;;;3.95;;
69621;SDS011;56841;55.964;37.674;2023-02-11T13:51:06;12.73;;;4.68;;
69621;SDS011;56841;55.964;37.674;2023-02-11T13:58:52;15.18;;;4.78;;
69621;SDS011;56841;55.964;37.674;2023-02-11T14:04:21;17.80;;;6.35;;
69621;SDS011;56841;55.964;37.674;2023-02-11T14:13:12;18.83;;;5.97;;
69621;SDS011;56841;55.964;37.674;2023-02-11T14:16:29;23.27;;;7.38;;
69621;SDS011;56841;55.964;37.674;2023-02-11T14:23:53;14.52;;;5.00;;
69621;SDS011;56841;55.964;37.674;2023-02-11T14:29:25;15.73;;;6.07;;
69621;SDS011;56841;55.964;37.674;2023-02-11T14:32:01;14.98;;;5.25;;
69621;SDS011;56841;55.964;37.674;2023-02-11T14:34:38;17.30;;;4.57;;
69621;SDS011;56841;55.964;37.674;2023-02-11T14:37:36;18.13;;;6.03;;
69621;SDS011;56841;55.964;37.674;2023-02-11T14:42:43;15.50;;;4.90;;
69621;SDS011;56841;55.964;37.674;2023-02-11T14:45:10;17.98;;;5.82;;
69621;SDS011;56841;55.964;37.674;2023-02-11T14:47:48;24.67;;;9.02;;
69621;SDS011;56841;55.964;37.674;2023-02-11T14:50:33;17.20;;;4.65;;
69621;SDS011;56841;55.964;37.674;2023-02-11T14:53:10;17.88;;;5.57;;
69621;SDS011;56841;55.964;37.674;2023-02-11T14:55:40;16.35;;;6.22;;
69621;SDS011;56841;55.964;37.674;2023-02-11T15:00:56;21.65;;;8.45;;
69621;SDS011;56841;55.964;37.674;2023-02-11T15:05:57;12.48;;;4.50;;
69621;SDS011;56841;55.964;37.674;2023-02-11T15:08:26;16.85;;;5.13;;
69621;SDS011;56841;55.964;37.674;2023-02-11T15:10:53;23.15;;;6.40;;
69621;SDS011;56841;55.964;37.674;2023-02-11T15:13:22;16.45;;;6.43;;
69621;SDS011;56841;55.964;37.674;2023-02-11T15:16:14;17.90;;;5.90;;
69621;SDS011;56841;55.964;37.674;2023-02-11T15:18:48;21.50;;;6.65;;
69621;SDS011;56841;55.964;37.674;2023-02-11T15:21:22;13.07;;;5.00;;
69621;SDS011;56841;55.964;37.674;2023-02-11T15:24:01;14.00;;;5.35;;
69621;SDS011;56841;55.964;37.674;2023-02-11T15:26:32;16.00;;;5.88;;
69621;SDS011;56841;55.964;37.674;2023-02-11T15:31:25;18.38;;;5.45;;
69621;SDS011;56841;55.964;37.674;2023-02-11T15:33:52;17.92;;;5.28;;
69621;SDS011;56841;55.964;37.674;2023-02-11T15:36:20;19.13;;;6.45;;
69621;SDS011;56841;55.964;37.674;2023-02-11T15:42:14;18.35;;;5.65;;
69621;SDS011;56841;55.964;37.674;2023-02-11T15:44:41;15.52;;;5.15;;
69621;SDS011;56841;55.964;37.674;2023-02-11T15:47:09;16.70;;;5.30;;
69621;SDS011;56841;55.964;37.674;2023-02-11T15:49:36;13.73;;;4.68;;
69621;SDS011;56841;55.964;37.674;2023-02-11T15:52:07;16.80;;;6.85;;
69621;SDS011;56841;55.964;37.674;2023-02-11T15:57:02;8.32;;;2.75;;
69621;SDS011;56841;55.964;37.674;2023-02-11T15:59:33;13.18;;;5.45;;
69621;SDS011;56841;55.964;37.674;2023-02-11T16:02:07;21.95;;;7.03;;
69621;SDS011;56841;55.964;37.674;2023-02-11T16:04:46;16.20;;;5.57;;
69621;SDS011;56841;55.964;37.674;2023-02-11T16:10:15;16.42;;;6.32;;
69621;SDS011;56841;55.964;37.674;2023-02-11T16:16:14;17.50;;;7.38;;
69621;SDS011;56841;55.964;37.674;2023-02-11T16:18:33;25.23;;;7.13;;
69621;SDS011;56841;55.964;37.674;2023-02-11T16:21:03;21.20;;;7.00;;
69621;SDS011;56841;55.964;37.674;2023-02-11T16:23:32;17.67;;;6.40;;
69621;SDS011;56841;55.964;37.674;2023-02-11T16:28:46;17.23;;;6.22;;
69621;SDS011;56841;55.964;37.674;2023-02-11T16:33:38;20.88;;;7.50;;
69621;SDS011;56841;55.964;37.674;2023-02-11T16:38:37;14.18;;;4.80;;
69621;SDS011;56841;55.964;37.674;2023-02-11T16:43:28;18.73;;;6.32;;
69621;SDS011;56841;55.964;37.674;2023-02-11T16:48:20;13.10;;;5.07;;
69621;SDS011;56841;55.964;37.674;2023-02-11T16:50:47;15.00;;;4.88;;
69621;SDS011;56841;55.964;37.674;2023-02-11T16:53:18;11.00;;;4.75;;
69621;SDS011;56841;55.964;37.674;2023-02-11T16:55:47;15.75;;;4.70;;
69621;SDS011;56841;55.964;37.674;2023-02-11T16:58:13;15.73;;;4.93;;
69621;SDS011;56841;55.964;37.674;2023-02-11T17:03:06;18.20;;;6.72;;
69621;SDS011;56841;55.964;37.674;2023-02-11T17:05:32;14.60;;;5.28;;
69621;SDS011;56841;55.964;37.674;2023-02-11T17:07:58;15.77;;;5.78;;
69621;SDS011;56841;55.964;37.674;2023-02-11T17:10:26;17.75;;;5.70;;
69621;SDS011;56841;55.964;37.674;2023-02-11T17:12:52;13.30;;;5.47;;
69621;SDS011;56841;55.964;37.674;2023-02-11T17:17:44;17.73;;;4.57;;
69621;SDS011;56841;55.964;37.674;2023-02-11T17:20:13;17.98;;;5.20;;
69621;SDS011;56841;55.964;37.674;2023-02-11T17:22:39;17.83;;;6.30;;
69621;SDS011;56841;55.964;37.674;2023-02-11T17:25:05;17.95;;;5.78;;
69621;SDS011;56841;55.964;37.674;2023-02-11T17:29:57;17.45;;;5.22;;
69621;SDS011;56841;55.964;37.674;2023-02-11T17:32:23;16.02;;;5.65;;
69621;SDS011;56841;55.964;37.674;2023-02-11T17:34:54;9.25;;;3.95;;
69621;SDS011;56841;55.964;37.674;2023-02-11T17:37:19;12.52;;;4.03;;
69621;SDS011;56841;55.964;37.674;2023-02-11T17:42:13;13.13;;;4.53;;
69621;SDS011;56841;55.964;37.674;2023-02-11T17:44:39;21.83;;;7.57;;
69621;SDS011;56841;55.964;37.674;2023-02-11T17:49:30;11.20;;;4.00;;
69621;SDS011;56841;55.964;37.674;2023-02-11T17:51:56;11.88;;;4.65;;
69621;SDS011;56841;55.964;37.674;2023-02-11T17:56:48;10.98;;;3.63;;
69621;SDS011;56841;55.964;37.674;2023-02-11T18:01:40;15.10;;;4.55;;
69621;SDS011;56841;55.964;37.674;2023-02-11T18:04:09;13.90;;;5.43;;
69621;SDS011;56841;55.964;37.674;2023-02-11T18:06:38;11.40;;;3.97;;
69621;SDS011;56841;55.964;37.674;2023-02-11T18:11:30;16.45;;;6.28;;
69621;SDS011;56841;55.964;37.674;2023-02-11T18:13:58;15.70;;;5.78;;
69621;SDS011;56841;55.964;37.674;2023-02-11T18:16:26;14.75;;;4.72;;
69621;SDS011;56841;55.964;37.674;2023-02-11T18:18:54;20.75;;;5.32;;
69621;SDS011;56841;55.964;37.674;2023-02-11T18:21:21;19.38;;;5.55;;
69621;SDS011;56841;55.964;37.674;2023-02-11T18:23:48;9.80;;;4.10;;
69621;SDS011;56841;55.964;37.674;2023-02-11T18:26:15;16.52;;;5.07;;
69621;SDS011;56841;55.964;37.674;2023-02-11T18:28:44;16.48;;;5.25;;
69621;SDS011;56841;55.964;37.674;2023-02-11T18:33:40;16.20;;;6.03;;
69621;SDS011;56841;55.964;37.674;2023-02-11T18:36:07;15.48;;;4.53;;
69621;SDS011;56841;55.964;37.674;2023-02-11T18:38:38;11.25;;;4.03;;
69621;SDS011;56841;55.964;37.674;2023-02-11T18:41:04;14.82;;;4.97;;
69621;SDS011;56841;55.964;37.674;2023-02-11T18:43:31;13.70;;;4.38;;
69621;SDS011;56841;55.964;37.674;2023-02-11T18:45:59;11.35;;;4.65;;
69621;SDS011;56841;55.964;37.674;2023-02-11T18:48:29;7.68;;;3.08;;
69621;SDS011;56841;55.964;37.674;2023-02-11T18:53:20;13.88;;;5.15;;
69621;SDS011;56841;55.964;37.674;2023-02-11T18:55:48;10.23;;;3.83;;
69621;SDS011;56841;55.964;37.674;2023-02-11T19:00:40;11.35;;;4.00;;
69621;SDS011;56841;55.964;37.674;2023-02-11T19:03:08;10.98;;;5.05;;
69621;SDS011;56841;55.964;37.674;2023-02-11T19:08:13;17.08;;;4.45;;
69621;SDS011;56841;55.964;37.674;2023-02-11T19:10:43;8.20;;;3.60;;
69621;SDS011;56841;55.964;37.674;2023-02-11T19:13:12;14.07;;;5.97;;
69621;SDS011;56841;55.964;37.674;2023-02-11T19:15:41;9.65;;;3.67;;
69621;SDS011;56841;55.964;37.674;2023-02-11T19:18:11;13.23;;;5.78;;
69621;SDS011;56841;55.964;37.674;2023-02-11T19:20:39;14.73;;;7.07;;
69621;SDS011;56841;55.964;37.674;2023-02-11T19:23:09;10.15;;;4.68;;
69621;SDS011;56841;55.964;37.674;2023-02-11T19:25:35;11.80;;;4.85;;
69621;SDS011;56841;55.964;37.674;2023-02-11T19:28:01;12.25;;;4.28;;
69621;SDS011;56841;55.964;37.674;2023-02-11T19:32:53;9.65;;;4.30;;
69621;SDS011;56841;55.964;37.674;2023-02-11T19:35:22;12.35;;;6.00;;
69621;SDS011;56841;55.964;37.674;2023-02-11T19:37:49;10.32;;;4.30;;
69621;SDS011;56841;55.964;37.674;2023-02-11T19:42:41;10.50;;;4.55;;
69621;SDS011;56841;55.964;37.674;2023-02-11T19:45:07;12.55;;;5.78;;
69621;SDS011;56841;55.964;37.674;2023-02-11T19:47:38;9.57;;;4.18;;
69621;SDS011;56841;55.964;37.674;2023-02-11T19:50:04;13.20;;;5.03;;
69621;SDS011;56841;55.964;37.674;2023-02-11T19:52:33;11.27;;;4.47;;
69621;SDS011;56841;55.964;37.674;2023-02-11T19:55:02;14.52;;;5.25;;
69621;SDS011;56841;55.964;37.674;2023-02-11T19:57:30;13.18;;;5.00;;
69621;SDS011;56841;55.964;37.674;2023-02-11T19:59:56;13.60;;;4.13;;
69621;SDS011;56841;55.964;37.674;2023-02-11T20:02:22;13.93;;;5.93;;
69621;SDS011;56841;55.964;37.674;2023-02-11T20:04:48;14.27;;;5.65;;
69621;SDS011;56841;55.964;37.674;2023-02-11T20:07:14;13.20;;;4.95;;
69621;SDS011;56841;55.964;37.674;2023-02-11T20:09:39;16.33;;;6.93;;
69621;SDS011;56841;55.964;37.674;2023-02-11T20:12:07;12.00;;;4.22;;
69621;SDS011;56841;55.964;37.674;2023-02-11T20:14:33;12.25;;;5.05;;
69621;SDS011;56841;55.964;37.674;2023-02-11T20:16:59;10.50;;;4.10;;
69621;SDS011;56841;55.964;37.674;2023-02-11T20:19:25;9.73;;;3.40;;
69621;SDS011;56841;55.964;37.674;2023-02-11T20:21:52;14.68;;;6.22;;
69621;SDS011;56841;55.964;37.674;2023-02-11T20:24:20;10.70;;;4.57;;
69621;SDS011;56841;55.964;37.674;2023-02-11T20:26:46;12.45;;;4.82;;